sensor_id;sensor_type;location;lat;lon;timestamp;pressure;altitude;pressure_sealevel;temperature;humidity
75298;BME280;63896;45.990;18.688;2023-07-28T00:02:14;100481.75;;;14.13;100.00
75298;BME280;63896;45.990;18.688;2023-07-28T00:05:17;100475.47;;;14.07;100.00
75298;BME280;63896;45.990;18.688;2023-07-28T00:08:20;100477.69;;;13.99;100.00
75298;BME280;63896;45.990;18.688;2023-07-28T00:11:22;100482.81;;;14.00;100.00
75298;BME280;63896;45.990;18.688;2023-07-28T00:14:26;100467.59;;;14.01;100.00
75298;BME280;63896;45.990;18.688;2023-07-28T00:17:29;100471.66;;;14.03;100.00
75298;BME280;63896;45.990;18.688;2023-07-28T00:20:32;100463.09;;;14.01;100.00
75298;BME280;63896;45.990;18.688;2023-07-28T00:23:35;100466.78;;;14.12;100.00
75298;BME280;63896;45.990;18.688;2023-07-28T00:26:37;100468.97;;;14.15;100.00
75298;BME280;63896;45.990;18.688;2023-07-28T00:29:41;100478.75;;;14.09;100.00
75298;BME280;63896;45.990;18.688;2023-07-28T00:32:44;100488.00;;;14.07;100.00
75298;BME280;63896;45.990;18.688;2023-07-28T00:35:47;100477.00;;;14.03;100.00
75298;BME280;63896;45.990;18.688;2023-07-28T00:38:50;100475.34;;;14.02;100.00
75298;BME280;63896;45.990;18.688;2023-07-28T00:41:52;100475.03;;;13.99;100.00
75298;BME280;63896;45.990;18.688;2023-07-28T00:44:55;100476.66;;;14.00;100.00
75298;BME280;63896;45.990;18.688;2023-07-28T00:47:58;100476.09;;;13.98;100.00
75298;BME280;63896;45.990;18.688;2023-07-28T00:51:01;100471.53;;;13.98;100.00
75298;BME280;63896;45.990;18.688;2023-07-28T00:54:05;100463.88;;;14.02;100.00
75298;BME280;63896;45.990;18.688;2023-07-28T00:57:08;100458.53;;;14.02;100.00
75298;BME280;63896;45.990;18.688;2023-07-28T01:00:12;100451.94;;;14.04;100.00
75298;BME280;63896;45.990;18.688;2023-07-28T01:03:17;100445.19;;;14.02;100.00
75298;BME280;63896;45.990;18.688;2023-07-28T01:06:29;100442.53;;;14.02;100.00
75298;BME280;63896;45.990;18.688;2023-07-28T01:09:45;100442.09;;;14.05;100.00
75298;BME280;63896;45.990;18.688;2023-07-28T01:12:49;100442.44;;;14.08;100.00
75298;BME280;63896;45.990;18.688;2023-07-28T01:15:52;100450.88;;;14.17;100.00
75298;BME280;63896;45.990;18.688;2023-07-28T01:18:55;100452.81;;;14.21;100.00
75298;BME280;63896;45.990;18.688;2023-07-28T01:25:47;100444.94;;;14.15;100.00
75298;BME280;63896;45.990;18.688;2023-07-28T01:28:50;100447.50;;;14.10;100.00
75298;BME280;63896;45.990;18.688;2023-07-28T01:31:54;100447.31;;;14.00;100.00
75298;BME280;63896;45.990;18.688;2023-07-28T01:34:57;100443.97;;;13.93;100.00
75298;BME280;63896;45.990;18.688;2023-07-28T01:38:00;100441.63;;;13.96;100.00
75298;BME280;63896;45.990;18.688;2023-07-28T01:41:02;100435.47;;;13.96;100.00
75298;BME280;63896;45.990;18.688;2023-07-28T01:44:05;100441.84;;;13.95;100.00
75298;BME280;63896;45.990;18.688;2023-07-28T01:47:08;100438.16;;;13.96;100.00
75298;BME280;63896;45.990;18.688;2023-07-28T01:50:11;100436.63;;;14.00;100.00
75298;BME280;63896;45.990;18.688;2023-07-28T01:53:14;100437.56;;;14.05;100.00
75298;BME280;63896;45.990;18.688;2023-07-28T01:56:17;100441.59;;;14.08;100.00
75298;BME280;63896;45.990;18.688;2023-07-28T01:59:19;100437.44;;;14.12;100.00
75298;BME280;63896;45.990;18.688;2023-07-28T02:02:24;100436.72;;;14.16;100.00
75298;BME280;63896;45.990;18.688;2023-07-28T02:05:27;100430.53;;;14.27;100.00
75298;BME280;63896;45.990;18.688;2023-07-28T02:08:29;100431.22;;;14.35;100.00
75298;BME280;63896;45.990;18.688;2023-07-28T02:11:32;100425.31;;;14.32;100.00
75298;BME280;63896;45.990;18.688;2023-07-28T02:14:35;100422.53;;;14.39;100.00
75298;BME280;63896;45.990;18.688;2023-07-28T02:17:38;100419.53;;;14.36;100.00
75298;BME280;63896;45.990;18.688;2023-07-28T02:20:41;100419.38;;;14.30;100.00
75298;BME280;63896;45.990;18.688;2023-07-28T02:23:44;100417.91;;;14.23;100.00
75298;BME280;63896;45.990;18.688;2023-07-28T02:26:46;100429.41;;;14.12;100.00
75298;BME280;63896;45.990;18.688;2023-07-28T02:29:49;100436.63;;;14.11;100.00
75298;BME280;63896;45.990;18.688;2023-07-28T02:32:52;100431.06;;;14.01;100.00
75298;BME280;63896;45.990;18.688;2023-07-28T02:35:56;100433.16;;;13.99;100.00
75298;BME280;63896;45.990;18.688;2023-07-28T02:38:59;100431.78;;;13.97;100.00
75298;BME280;63896;45.990;18.688;2023-07-28T02:42:02;100429.09;;;13.97;100.00
75298;BME280;63896;45.990;18.688;2023-07-28T02:45:05;100421.25;;;13.90;100.00
75298;BME280;63896;45.990;18.688;2023-07-28T02:48:08;100429.34;;;13.83;100.00
75298;BME280;63896;45.990;18.688;2023-07-28T02:51:11;100432.50;;;13.80;100.00
75298;BME280;63896;45.990;18.688;2023-07-28T02:54:14;100430.78;;;13.74;100.00
75298;BME280;63896;45.990;18.688;2023-07-28T02:57:16;100426.69;;;13.72;100.00
75298;BME280;63896;45.990;18.688;2023-07-28T03:00:22;100436.22;;;13.68;100.00
75298;BME280;63896;45.990;18.688;2023-07-28T03:03:25;100437.97;;;13.62;100.00
75298;BME280;63896;45.990;18.688;2023-07-28T03:06:28;100436.00;;;13.58;100.00
75298;BME280;63896;45.990;18.688;2023-07-28T03:09:32;100438.66;;;13.58;100.00
75298;BME280;63896;45.990;18.688;2023-07-28T03:12:36;100432.28;;;13.59;100.00
75298;BME280;63896;45.990;18.688;2023-07-28T03:15:39;100433.53;;;13.56;100.00
75298;BME280;63896;45.990;18.688;2023-07-28T03:18:42;100426.50;;;13.50;100.00
75298;BME280;63896;45.990;18.688;2023-07-28T03:21:45;100425.47;;;13.51;100.00
75298;BME280;63896;45.990;18.688;2023-07-28T03:24:48;100431.34;;;13.53;100.00
75298;BME280;63896;45.990;18.688;2023-07-28T03:27:51;100436.00;;;13.58;100.00
75298;BME280;63896;45.990;18.688;2023-07-28T03:30:55;100428.00;;;13.58;100.00
75298;BME280;63896;45.990;18.688;2023-07-28T03:33:58;100431.13;;;13.55;100.00
75298;BME280;63896;45.990;18.688;2023-07-28T03:37:02;100426.84;;;13.54;100.00
75298;BME280;63896;45.990;18.688;2023-07-28T03:40:06;100429.50;;;13.54;100.00
75298;BME280;63896;45.990;18.688;2023-07-28T03:43:21;100424.97;;;13.54;100.00
75298;BME280;63896;45.990;18.688;2023-07-28T03:46:24;100434.69;;;13.60;100.00
75298;BME280;63896;45.990;18.688;2023-07-28T03:49:30;100430.88;;;13.68;100.00
75298;BME280;63896;45.990;18.688;2023-07-28T03:52:33;100432.28;;;13.82;100.00
75298;BME280;63896;45.990;18.688;2023-07-28T03:55:36;100431.66;;;13.92;100.00
75298;BME280;63896;45.990;18.688;2023-07-28T03:58:38;100428.84;;;13.98;100.00
75298;BME280;63896;45.990;18.688;2023-07-28T04:01:41;100439.16;;;14.06;100.00
75298;BME280;63896;45.990;18.688;2023-07-28T04:04:44;100437.41;;;14.23;100.00
75298;BME280;63896;45.990;18.688;2023-07-28T04:07:47;100437.84;;;14.32;100.00
75298;BME280;63896;45.990;18.688;2023-07-28T04:10:50;100451.19;;;14.44;100.00
75298;BME280;63896;45.990;18.688;2023-07-28T04:13:53;100444.66;;;14.51;100.00
75298;BME280;63896;45.990;18.688;2023-07-28T04:16:56;100433.91;;;14.63;100.00
75298;BME280;63896;45.990;18.688;2023-07-28T04:19:59;100434.41;;;14.76;100.00
75298;BME280;63896;45.990;18.688;2023-07-28T04:23:01;100435.41;;;14.87;100.00
75298;BME280;63896;45.990;18.688;2023-07-28T04:26:10;100432.09;;;14.97;100.00
75298;BME280;63896;45.990;18.688;2023-07-28T04:29:14;100426.78;;;15.13;100.00
75298;BME280;63896;45.990;18.688;2023-07-28T04:32:17;100425.63;;;15.26;99.91
75298;BME280;63896;45.990;18.688;2023-07-28T04:35:20;100428.28;;;15.43;98.67
75298;BME280;63896;45.990;18.688;2023-07-28T04:38:49;100436.59;;;15.80;96.20
75298;BME280;63896;45.990;18.688;2023-07-28T04:41:51;100435.19;;;16.37;92.88
75298;BME280;63896;45.990;18.688;2023-07-28T04:44:54;100431.38;;;16.82;90.27
75298;BME280;63896;45.990;18.688;2023-07-28T04:47:57;100436.66;;;17.35;87.47
75298;BME280;63896;45.990;18.688;2023-07-28T04:51:00;100425.38;;;17.70;84.63
75298;BME280;63896;45.990;18.688;2023-07-28T04:54:22;100418.47;;;17.84;83.84
75298;BME280;63896;45.990;18.688;2023-07-28T04:57:24;100424.06;;;18.40;80.89
75298;BME280;63896;45.990;18.688;2023-07-28T05:00:27;100427.97;;;18.94;78.15
75298;BME280;63896;45.990;18.688;2023-07-28T05:03:31;100427.94;;;19.35;76.17
75298;BME280;63896;45.990;18.688;2023-07-28T05:06:54;100437.09;;;19.69;74.01
75298;BME280;63896;45.990;18.688;2023-07-28T05:09:57;100445.81;;;20.15;72.75
75298;BME280;63896;45.990;18.688;2023-07-28T05:13:02;100437.69;;;20.30;71.02
75298;BME280;63896;45.990;18.688;2023-07-28T05:16:08;100432.72;;;20.53;70.88
75298;BME280;63896;45.990;18.688;2023-07-28T05:19:31;100444.94;;;20.84;70.32
75298;BME280;63896;45.990;18.688;2023-07-28T05:22:57;100438.63;;;20.99;69.60
75298;BME280;63896;45.990;18.688;2023-07-28T05:26:03;100444.31;;;20.53;69.20
75298;BME280;63896;45.990;18.688;2023-07-28T05:29:06;100451.94;;;20.85;68.64
75298;BME280;63896;45.990;18.688;2023-07-28T05:32:09;100446.97;;;20.97;69.08
75298;BME280;63896;45.990;18.688;2023-07-28T05:35:44;100449.41;;;20.55;70.20
75298;BME280;63896;45.990;18.688;2023-07-28T05:38:48;100455.19;;;20.38;70.00
75298;BME280;63896;45.990;18.688;2023-07-28T05:41:51;100460.50;;;20.48;70.63
75298;BME280;63896;45.990;18.688;2023-07-28T05:44:54;100459.13;;;20.51;71.27
75298;BME280;63896;45.990;18.688;2023-07-28T05:47:58;100459.66;;;20.58;71.92
75298;BME280;63896;45.990;18.688;2023-07-28T05:51:01;100468.59;;;20.53;72.40
75298;BME280;63896;45.990;18.688;2023-07-28T05:54:04;100461.91;;;20.40;72.74
75298;BME280;63896;45.990;18.688;2023-07-28T05:57:12;100462.63;;;20.56;72.32
75298;BME280;63896;45.990;18.688;2023-07-28T06:00:15;100467.56;;;20.39;73.37
75298;BME280;63896;45.990;18.688;2023-07-28T06:03:19;100469.81;;;20.76;72.55
75298;BME280;63896;45.990;18.688;2023-07-28T06:06:35;100462.44;;;20.86;73.12
75298;BME280;63896;45.990;18.688;2023-07-28T06:09:38;100446.25;;;21.25;71.88
75298;BME280;63896;45.990;18.688;2023-07-28T06:12:41;100454.06;;;21.56;69.97
75298;BME280;63896;45.990;18.688;2023-07-28T06:15:44;100449.53;;;21.51;69.09
75298;BME280;63896;45.990;18.688;2023-07-28T06:18:47;100454.56;;;21.86;70.96
75298;BME280;63896;45.990;18.688;2023-07-28T06:22:10;100457.50;;;21.90;67.57
75298;BME280;63896;45.990;18.688;2023-07-28T06:25:19;100453.16;;;21.94;65.85
75298;BME280;63896;45.990;18.688;2023-07-28T06:28:22;100450.34;;;22.04;64.57
75298;BME280;63896;45.990;18.688;2023-07-28T06:31:26;100441.75;;;22.21;64.20
75298;BME280;63896;45.990;18.688;2023-07-28T06:34:28;100437.44;;;22.62;64.23
75298;BME280;63896;45.990;18.688;2023-07-28T06:37:37;100433.88;;;22.86;60.92
75298;BME280;63896;45.990;18.688;2023-07-28T06:40:41;100433.34;;;22.84;59.51
75298;BME280;63896;45.990;18.688;2023-07-28T06:43:44;100429.97;;;22.92;58.76
75298;BME280;63896;45.990;18.688;2023-07-28T06:46:48;100432.00;;;23.32;57.46
75298;BME280;63896;45.990;18.688;2023-07-28T06:49:51;100434.16;;;23.49;56.24
75298;BME280;63896;45.990;18.688;2023-07-28T06:52:54;100436.38;;;23.60;56.25
75298;BME280;63896;45.990;18.688;2023-07-28T06:56:00;100434.41;;;23.66;56.36
75298;BME280;63896;45.990;18.688;2023-07-28T06:59:03;100431.06;;;24.10;55.80
75298;BME280;63896;45.990;18.688;2023-07-28T07:02:44;100429.69;;;24.26;54.01
75298;BME280;63896;45.990;18.688;2023-07-28T07:05:57;100442.66;;;24.15;54.00
75298;BME280;63896;45.990;18.688;2023-07-28T07:09:00;100431.13;;;24.59;53.20
75298;BME280;63896;45.990;18.688;2023-07-28T07:12:03;100432.44;;;24.62;52.11
75298;BME280;63896;45.990;18.688;2023-07-28T07:15:07;100437.50;;;25.13;51.26
75298;BME280;63896;45.990;18.688;2023-07-28T07:18:10;100432.72;;;25.41;50.87
75298;BME280;63896;45.990;18.688;2023-07-28T07:21:13;100443.44;;;25.46;49.16
75298;BME280;63896;45.990;18.688;2023-07-28T07:24:19;100437.72;;;26.35;47.22
75298;BME280;63896;45.990;18.688;2023-07-28T07:27:24;100433.13;;;26.95;46.89
75298;BME280;63896;45.990;18.688;2023-07-28T07:30:27;100430.84;;;28.16;41.92
75298;BME280;63896;45.990;18.688;2023-07-28T07:33:30;100434.44;;;29.12;40.13
75298;BME280;63896;45.990;18.688;2023-07-28T07:36:33;100430.13;;;29.44;38.81
75298;BME280;63896;45.990;18.688;2023-07-28T07:39:36;100432.78;;;30.13;36.69
75298;BME280;63896;45.990;18.688;2023-07-28T07:42:48;100429.81;;;29.69;36.89
75298;BME280;63896;45.990;18.688;2023-07-28T07:45:51;100425.97;;;29.95;35.98
75298;BME280;63896;45.990;18.688;2023-07-28T07:48:57;100435.81;;;31.00;35.18
75298;BME280;63896;45.990;18.688;2023-07-28T07:52:00;100427.63;;;30.88;35.88
75298;BME280;63896;45.990;18.688;2023-07-28T07:55:03;100431.84;;;31.56;33.94
75298;BME280;63896;45.990;18.688;2023-07-28T07:58:06;100434.34;;;31.61;33.51
75298;BME280;63896;45.990;18.688;2023-07-28T08:01:09;100419.06;;;33.03;32.31
75298;BME280;63896;45.990;18.688;2023-07-28T08:04:12;100415.84;;;33.40;30.75
75298;BME280;63896;45.990;18.688;2023-07-28T08:07:14;100413.44;;;33.16;30.61
75298;BME280;63896;45.990;18.688;2023-07-28T08:10:19;100406.06;;;33.65;30.37
75298;BME280;63896;45.990;18.688;2023-07-28T08:13:22;100407.91;;;34.33;29.18
75298;BME280;63896;45.990;18.688;2023-07-28T08:16:25;100405.03;;;34.26;29.11
75298;BME280;63896;45.990;18.688;2023-07-28T08:19:28;100410.75;;;33.00;29.87
75298;BME280;63896;45.990;18.688;2023-07-28T08:22:30;100401.84;;;33.06;30.01
75298;BME280;63896;45.990;18.688;2023-07-28T08:25:34;100409.38;;;34.01;28.52
75298;BME280;63896;45.990;18.688;2023-07-28T08:28:37;100404.63;;;33.97;28.24
75298;BME280;63896;45.990;18.688;2023-07-28T08:31:40;100419.09;;;34.47;27.17
75298;BME280;63896;45.990;18.688;2023-07-28T08:34:45;100407.47;;;34.05;27.72
75298;BME280;63896;45.990;18.688;2023-07-28T08:37:47;100413.25;;;34.22;27.52
75298;BME280;63896;45.990;18.688;2023-07-28T08:40:50;100405.22;;;34.40;27.52
75298;BME280;63896;45.990;18.688;2023-07-28T08:43:53;100397.69;;;35.00;27.45
75298;BME280;63896;45.990;18.688;2023-07-28T08:46:56;100404.66;;;35.24;26.87
75298;BME280;63896;45.990;18.688;2023-07-28T08:49:59;100403.84;;;35.64;26.14
75298;BME280;63896;45.990;18.688;2023-07-28T08:53:02;100399.78;;;36.02;24.08
75298;BME280;63896;45.990;18.688;2023-07-28T08:56:06;100402.94;;;35.12;25.00
75298;BME280;63896;45.990;18.688;2023-07-28T08:59:09;100399.09;;;35.20;25.06
75298;BME280;63896;45.990;18.688;2023-07-28T09:02:14;100403.00;;;34.53;26.22
75298;BME280;63896;45.990;18.688;2023-07-28T09:05:20;100400.31;;;34.26;26.54
75298;BME280;63896;45.990;18.688;2023-07-28T09:08:23;100406.88;;;34.74;26.87
75298;BME280;63896;45.990;18.688;2023-07-28T09:11:26;100389.19;;;35.60;25.69
75298;BME280;63896;45.990;18.688;2023-07-28T09:14:38;100386.22;;;34.95;25.98
75298;BME280;63896;45.990;18.688;2023-07-28T09:17:42;100384.84;;;37.25;23.94
75298;BME280;63896;45.990;18.688;2023-07-28T09:20:45;100379.88;;;36.44;25.84
75298;BME280;63896;45.990;18.688;2023-07-28T09:23:48;100373.88;;;36.27;24.37
75298;BME280;63896;45.990;18.688;2023-07-28T09:26:51;100370.81;;;36.50;24.27
75298;BME280;63896;45.990;18.688;2023-07-28T09:29:55;100378.88;;;37.01;23.45
75298;BME280;63896;45.990;18.688;2023-07-28T09:32:58;100373.56;;;36.47;25.08
75298;BME280;63896;45.990;18.688;2023-07-28T09:36:12;100384.69;;;36.57;24.26
75298;BME280;63896;45.990;18.688;2023-07-28T09:39:17;100389.72;;;35.28;26.52
75298;BME280;63896;45.990;18.688;2023-07-28T09:42:20;100380.16;;;35.19;26.31
75298;BME280;63896;45.990;18.688;2023-07-28T09:45:23;100365.88;;;35.57;26.64
75298;BME280;63896;45.990;18.688;2023-07-28T09:48:31;100369.34;;;36.81;25.26
75298;BME280;63896;45.990;18.688;2023-07-28T09:51:35;100380.16;;;35.19;26.79
75298;BME280;63896;45.990;18.688;2023-07-28T09:54:40;100368.09;;;34.97;27.35
75298;BME280;63896;45.990;18.688;2023-07-28T09:57:50;100361.25;;;35.17;27.44
75298;BME280;63896;45.990;18.688;2023-07-28T10:00:54;100357.38;;;34.55;27.94
75298;BME280;63896;45.990;18.688;2023-07-28T10:03:58;100353.19;;;35.49;27.54
75298;BME280;63896;45.990;18.688;2023-07-28T10:07:02;100349.59;;;35.96;26.64
75298;BME280;63896;45.990;18.688;2023-07-28T10:10:08;100356.31;;;35.41;26.98
75298;BME280;63896;45.990;18.688;2023-07-28T10:13:20;100356.25;;;35.84;27.03
75298;BME280;63896;45.990;18.688;2023-07-28T10:16:31;100349.09;;;35.76;27.21
75298;BME280;63896;45.990;18.688;2023-07-28T10:19:39;100345.66;;;36.98;25.53
75298;BME280;63896;45.990;18.688;2023-07-28T10:22:45;100339.59;;;36.50;25.48
75298;BME280;63896;45.990;18.688;2023-07-28T10:25:59;100336.38;;;36.30;25.82
75298;BME280;63896;45.990;18.688;2023-07-28T10:29:13;100332.31;;;36.06;26.41
75298;BME280;63896;45.990;18.688;2023-07-28T10:32:26;100328.69;;;37.35;25.01
75298;BME280;63896;45.990;18.688;2023-07-28T10:35:30;100342.47;;;36.67;24.75
75298;BME280;63896;45.990;18.688;2023-07-28T10:38:35;100339.97;;;36.38;25.56
75298;BME280;63896;45.990;18.688;2023-07-28T10:42:00;100332.25;;;37.39;24.38
75298;BME280;63896;45.990;18.688;2023-07-28T10:45:03;100331.84;;;36.94;25.63
75298;BME280;63896;45.990;18.688;2023-07-28T10:48:07;100319.63;;;37.16;25.23
75298;BME280;63896;45.990;18.688;2023-07-28T10:51:12;100316.84;;;37.52;24.42
75298;BME280;63896;45.990;18.688;2023-07-28T10:54:21;100320.34;;;36.82;25.46
75298;BME280;63896;45.990;18.688;2023-07-28T10:57:25;100317.75;;;38.50;24.15
75298;BME280;63896;45.990;18.688;2023-07-28T11:00:31;100318.84;;;39.22;22.50
75298;BME280;63896;45.990;18.688;2023-07-28T11:03:34;100318.78;;;37.80;23.97
75298;BME280;63896;45.990;18.688;2023-07-28T11:06:38;100311.84;;;39.06;22.76
75298;BME280;63896;45.990;18.688;2023-07-28T11:09:42;100308.19;;;38.58;23.22
75298;BME280;63896;45.990;18.688;2023-07-28T11:12:48;100311.78;;;38.51;23.84
75298;BME280;63896;45.990;18.688;2023-07-28T11:15:52;100309.34;;;37.38;25.04
75298;BME280;63896;45.990;18.688;2023-07-28T11:18:55;100310.38;;;36.52;25.60
75298;BME280;63896;45.990;18.688;2023-07-28T11:21:59;100308.16;;;37.11;24.50
75298;BME280;63896;45.990;18.688;2023-07-28T11:25:06;100306.16;;;37.64;25.21
75298;BME280;63896;45.990;18.688;2023-07-28T11:28:12;100303.75;;;37.70;24.95
75298;BME280;63896;45.990;18.688;2023-07-28T11:31:15;100294.16;;;38.79;23.40
75298;BME280;63896;45.990;18.688;2023-07-28T11:34:18;100292.72;;;39.94;22.46
75298;BME280;63896;45.990;18.688;2023-07-28T11:37:21;100305.88;;;38.49;23.40
75298;BME280;63896;45.990;18.688;2023-07-28T11:40:24;100292.88;;;39.46;22.32
75298;BME280;63896;45.990;18.688;2023-07-28T11:43:28;100295.91;;;39.14;23.06
75298;BME280;63896;45.990;18.688;2023-07-28T11:46:42;100286.53;;;38.28;23.98
75298;BME280;63896;45.990;18.688;2023-07-28T11:49:47;100281.66;;;37.20;24.80
75298;BME280;63896;45.990;18.688;2023-07-28T11:52:50;100277.81;;;39.40;22.87
75298;BME280;63896;45.990;18.688;2023-07-28T11:55:54;100272.38;;;38.85;23.56
75298;BME280;63896;45.990;18.688;2023-07-28T11:58:58;100268.28;;;38.34;24.42
75298;BME280;63896;45.990;18.688;2023-07-28T12:02:02;100266.28;;;38.97;23.06
75298;BME280;63896;45.990;18.688;2023-07-28T12:05:14;100261.31;;;38.74;23.40
75298;BME280;63896;45.990;18.688;2023-07-28T12:08:38;100254.31;;;38.55;23.57
75298;BME280;63896;45.990;18.688;2023-07-28T12:11:44;100254.41;;;39.41;23.11
75298;BME280;63896;45.990;18.688;2023-07-28T12:14:50;100245.81;;;38.14;24.23
75298;BME280;63896;45.990;18.688;2023-07-28T12:18:13;100248.81;;;38.48;23.55
75298;BME280;63896;45.990;18.688;2023-07-28T12:21:19;100244.84;;;37.45;24.95
75298;BME280;63896;45.990;18.688;2023-07-28T12:24:22;100238.81;;;37.78;24.81
75298;BME280;63896;45.990;18.688;2023-07-28T12:27:25;100232.25;;;37.05;25.48
75298;BME280;63896;45.990;18.688;2023-07-28T12:30:35;100231.75;;;37.63;25.19
75298;BME280;63896;45.990;18.688;2023-07-28T12:33:38;100224.50;;;38.01;24.29
75298;BME280;63896;45.990;18.688;2023-07-28T12:36:41;100223.03;;;37.68;25.63
75298;BME280;63896;45.990;18.688;2023-07-28T12:39:47;100220.31;;;37.50;24.99
75298;BME280;63896;45.990;18.688;2023-07-28T12:42:53;100226.22;;;37.59;25.13
75298;BME280;63896;45.990;18.688;2023-07-28T12:46:00;100226.91;;;37.85;24.37
75298;BME280;63896;45.990;18.688;2023-07-28T12:49:06;100227.72;;;37.96;25.31
75298;BME280;63896;45.990;18.688;2023-07-28T12:52:09;100223.59;;;38.22;24.60
75298;BME280;63896;45.990;18.688;2023-07-28T12:55:21;100211.00;;;39.17;23.79
75298;BME280;63896;45.990;18.688;2023-07-28T12:58:24;100215.66;;;39.30;24.14
75298;BME280;63896;45.990;18.688;2023-07-28T13:01:30;100213.53;;;37.76;25.63
75298;BME280;63896;45.990;18.688;2023-07-28T13:04:32;100215.63;;;36.94;26.62
75298;BME280;63896;45.990;18.688;2023-07-28T13:07:36;100218.75;;;37.46;25.83
75298;BME280;63896;45.990;18.688;2023-07-28T13:10:42;100209.06;;;38.03;25.31
75298;BME280;63896;45.990;18.688;2023-07-28T13:13:48;100212.50;;;38.80;24.54
75298;BME280;63896;45.990;18.688;2023-07-28T13:16:51;100197.44;;;38.26;25.31
75298;BME280;63896;45.990;18.688;2023-07-28T13:19:54;100194.13;;;38.49;25.13
75298;BME280;63896;45.990;18.688;2023-07-28T13:22:56;100198.09;;;38.99;25.09
75298;BME280;63896;45.990;18.688;2023-07-28T13:25:59;100196.25;;;38.27;25.24
75298;BME280;63896;45.990;18.688;2023-07-28T13:29:02;100188.28;;;38.33;25.01
75298;BME280;63896;45.990;18.688;2023-07-28T13:32:15;100202.06;;;38.47;24.83
75298;BME280;63896;45.990;18.688;2023-07-28T13:35:18;100186.50;;;38.64;25.57
75298;BME280;63896;45.990;18.688;2023-07-28T13:38:21;100194.72;;;36.68;27.75
75298;BME280;63896;45.990;18.688;2023-07-28T13:41:24;100189.94;;;35.47;28.25
75298;BME280;63896;45.990;18.688;2023-07-28T13:44:27;100192.69;;;35.44;28.96
75298;BME280;63896;45.990;18.688;2023-07-28T13:47:34;100190.31;;;34.87;30.19
75298;BME280;63896;45.990;18.688;2023-07-28T13:50:37;100198.69;;;34.54;30.10
75298;BME280;63896;45.990;18.688;2023-07-28T13:53:40;100199.88;;;33.57;31.10
75298;BME280;63896;45.990;18.688;2023-07-28T13:56:42;100189.09;;;33.71;31.19
75298;BME280;63896;45.990;18.688;2023-07-28T13:59:48;100184.44;;;33.48;31.15
75298;BME280;63896;45.990;18.688;2023-07-28T14:02:51;100186.91;;;33.57;31.72
75298;BME280;63896;45.990;18.688;2023-07-28T14:05:55;100186.97;;;33.61;32.24
75298;BME280;63896;45.990;18.688;2023-07-28T14:08:57;100186.16;;;33.60;31.88
75298;BME280;63896;45.990;18.688;2023-07-28T14:12:00;100195.72;;;33.66;31.86
75298;BME280;63896;45.990;18.688;2023-07-28T14:15:04;100187.19;;;33.75;31.85
75298;BME280;63896;45.990;18.688;2023-07-28T14:18:07;100181.56;;;33.68;31.69
75298;BME280;63896;45.990;18.688;2023-07-28T14:21:10;100183.66;;;33.48;33.11
75298;BME280;63896;45.990;18.688;2023-07-28T14:24:13;100181.81;;;33.29;33.22
75298;BME280;63896;45.990;18.688;2023-07-28T14:27:16;100178.16;;;33.48;32.99
75298;BME280;63896;45.990;18.688;2023-07-28T14:30:19;100176.72;;;33.28;32.87
75298;BME280;63896;45.990;18.688;2023-07-28T14:33:22;100179.91;;;33.33;32.37
75298;BME280;63896;45.990;18.688;2023-07-28T14:36:25;100179.84;;;32.77;33.08
75298;BME280;63896;45.990;18.688;2023-07-28T14:39:27;100183.00;;;32.15;34.49
75298;BME280;63896;45.990;18.688;2023-07-28T14:42:30;100185.16;;;32.05;33.79
75298;BME280;63896;45.990;18.688;2023-07-28T14:45:33;100182.22;;;32.14;33.50
75298;BME280;63896;45.990;18.688;2023-07-28T14:48:36;100177.66;;;32.44;33.32
75298;BME280;63896;45.990;18.688;2023-07-28T14:51:39;100187.22;;;31.89;34.07
75298;BME280;63896;45.990;18.688;2023-07-28T14:54:41;100184.66;;;32.19;33.60
75298;BME280;63896;45.990;18.688;2023-07-28T14:57:44;100192.75;;;31.54;34.98
75298;BME280;63896;45.990;18.688;2023-07-28T15:00:47;100184.25;;;31.44;35.27
75298;BME280;63896;45.990;18.688;2023-07-28T15:03:50;100191.16;;;31.53;34.76
75298;BME280;63896;45.990;18.688;2023-07-28T15:06:53;100183.00;;;31.76;35.03
75298;BME280;63896;45.990;18.688;2023-07-28T15:09:55;100181.72;;;31.89;35.52
75298;BME280;63896;45.990;18.688;2023-07-28T15:12:58;100174.03;;;32.18;35.72
75298;BME280;63896;45.990;18.688;2023-07-28T15:16:01;100172.56;;;32.43;35.01
75298;BME280;63896;45.990;18.688;2023-07-28T15:19:04;100167.41;;;32.41;35.31
75298;BME280;63896;45.990;18.688;2023-07-28T15:22:07;100169.41;;;32.02;35.35
75298;BME280;63896;45.990;18.688;2023-07-28T15:25:10;100169.78;;;32.01;35.68
75298;BME280;63896;45.990;18.688;2023-07-28T15:28:13;100163.00;;;31.95;36.52
75298;BME280;63896;45.990;18.688;2023-07-28T15:31:16;100170.09;;;31.57;36.59
75298;BME280;63896;45.990;18.688;2023-07-28T15:34:19;100159.97;;;31.61;37.48
75298;BME280;63896;45.990;18.688;2023-07-28T15:37:23;100169.22;;;31.38;37.31
75298;BME280;63896;45.990;18.688;2023-07-28T15:40:25;100162.06;;;31.33;37.29
75298;BME280;63896;45.990;18.688;2023-07-28T15:43:28;100156.53;;;31.30;37.40
75298;BME280;63896;45.990;18.688;2023-07-28T15:46:31;100151.03;;;31.30;37.73
75298;BME280;63896;45.990;18.688;2023-07-28T15:49:34;100153.03;;;30.82;37.69
75298;BME280;63896;45.990;18.688;2023-07-28T15:52:37;100147.31;;;30.71;37.91
75298;BME280;63896;45.990;18.688;2023-07-28T15:55:40;100135.22;;;30.72;38.41